createdAt,value
2017-07-01T00:00:11.185Z,937.0
2017-07-01T00:01:19.207Z,937.0
2017-07-01T00:02:27.237Z,937.0
2017-07-01T00:03:35.325Z,937.0
2017-07-01T00:04:43.412Z,937.1
2017-07-01T00:05:51.501Z,937.0
2017-07-01T00:06:59.645Z,937.0
2017-07-01T00:08:07.676Z,937.0
2017-07-01T00:09:15.886Z,937.0
2017-07-01T00:10:23.982Z,937.0
2017-07-01T00:11:31.936Z,937.0
2017-07-01T00:12:40.079Z,937.0
2017-07-01T00:13:48.111Z,937.0
2017-07-01T00:14:56.198Z,937.0
2017-07-01T00:16:04.451Z,937.0
2017-07-01T00:17:12.372Z,937.0
2017-07-01T00:18:20.514Z,937.0
2017-07-01T00:19:28.546Z,937.0
2017-07-01T00:20:36.634Z,937.0
2017-07-01T00:21:44.720Z,937.0
2017-07-01T00:22:52.808Z,937.0
2017-07-01T00:24:00.954Z,937.0
2017-07-01T00:25:08.984Z,937.0
2017-07-01T00:26:17.258Z,937.0
2017-07-01T00:27:25.358Z,936.9
2017-07-01T00:28:33.246Z,936.9
2017-07-01T00:29:41.454Z,937.0
2017-07-01T00:30:49.421Z,937.0
2017-07-01T00:31:57.563Z,937.0
2017-07-01T00:33:05.701Z,937.0
2017-07-01T00:34:13.681Z,937.0
2017-07-01T00:35:21.827Z,937.0
2017-07-01T00:36:29.857Z,937.0
2017-07-01T00:37:37.945Z,937.0
2017-07-01T00:38:46.040Z,936.9
2017-07-01T00:39:54.118Z,937.0
2017-07-01T00:41:02.326Z,937.0
2017-07-01T00:42:10.293Z,936.9
2017-07-01T00:43:18.381Z,936.9
2017-07-01T00:44:26.468Z,937.0
2017-07-01T00:45:34.576Z,937.0
2017-07-01T00:46:42.763Z,936.9
2017-07-01T00:47:50.785Z,936.9
2017-07-01T00:48:58.815Z,936.9
2017-07-01T00:50:06.903Z,937.0
2017-07-01T00:51:14.992Z,937.0
2017-07-01T00:52:23.201Z,936.9
2017-07-01T00:53:31.167Z,937.0
2017-07-01T00:54:39.255Z,937.0
2017-07-01T00:55:47.476Z,937.0
2017-07-01T00:56:55.575Z,937.0
2017-07-01T00:58:03.571Z,937.0
2017-07-01T00:59:11.601Z,937.0
2017-07-01T01:00:19.689Z,937.0
2017-07-01T01:01:27.776Z,937.0
2017-07-01T01:02:35.986Z,937.0
2017-07-01T01:03:44.008Z,936.9
2017-07-01T01:04:52.039Z,937.0
2017-07-01T01:06:00.126Z,937.0
2017-07-01T01:07:08.213Z,937.0
2017-07-01T01:08:16.399Z,936.9
2017-07-01T01:09:24.535Z,937.0
2017-07-01T01:10:32.474Z,937.0
2017-07-01T01:11:40.562Z,937.0
2017-07-01T01:12:48.649Z,937.0
2017-07-01T01:13:56.738Z,937.0
2017-07-01T01:15:04.940Z,937.0
2017-07-01T01:16:12.912Z,937.0
2017-07-01T01:17:20.999Z,937.0
2017-07-01T01:18:29.084Z,937.0
2017-07-01T01:19:37.229Z,936.9
2017-07-01T01:20:45.381Z,937.0
2017-07-01T01:21:53.348Z,936.9
2017-07-01T01:23:01.436Z,937.0
2017-07-01T01:24:09.521Z,937.0
2017-07-01T01:25:17.757Z,937.0
2017-07-01T01:26:25.867Z,937.0
2017-07-01T01:27:33.783Z,937.0
2017-07-01T01:28:41.872Z,937.0
2017-07-01T01:29:49.958Z,937.0
2017-07-01T01:30:58.046Z,937.0
2017-07-01T01:32:06.188Z,937.0
2017-07-01T01:33:14.221Z,937.0
2017-07-01T01:34:22.308Z,937.0
2017-07-01T01:35:30.514Z,937.0
2017-07-01T01:36:38.480Z,937.0
2017-07-01T01:37:46.689Z,937.0
2017-07-01T01:38:54.655Z,937.0
2017-07-01T01:40:02.741Z,937.0
2017-07-01T01:41:10.829Z,937.0
2017-07-01T01:42:19.042Z,937.0
2017-07-01T01:43:27.114Z,937.0
2017-07-01T01:44:35.091Z,937.1
2017-07-01T01:45:43.179Z,937.0
2017-07-01T01:46:51.265Z,937.1
2017-07-01T01:47:59.352Z,937.1
2017-07-01T01:49:07.523Z,937.1
2017-07-01T01:50:15.525Z,937.1
2017-07-01T01:51:23.734Z,937.1
2017-07-01T01:52:31.700Z,937.1
2017-07-01T01:53:39.788Z,937.2
2017-07-01T01:54:47.931Z,937.1
2017-07-01T01:55:55.965Z,937.2
2017-07-01T01:57:04.051Z,937.2
2017-07-01T01:58:12.138Z,937.3
2017-07-01T01:59:20.387Z,937.2
2017-07-01T02:00:28.504Z,937.2
2017-07-01T02:01:36.400Z,937.2
2017-07-01T02:02:44.486Z,937.2
2017-07-01T02:03:52.574Z,937.3
2017-07-01T02:05:00.662Z,937.3
2017-07-01T02:06:08.989Z,937.2
2017-07-01T02:07:16.892Z,937.2
2017-07-01T02:08:24.922Z,937.3
2017-07-01T02:09:33.010Z,937.3
2017-07-01T02:10:41.098Z,937.3
2017-07-01T02:11:49.304Z,937.3
2017-07-01T02:12:57.273Z,937.3
2017-07-01T02:14:05.365Z,937.3
2017-07-01T02:15:13.447Z,937.3
2017-07-01T02:16:21.532Z,937.3
2017-07-01T02:17:29.693Z,937.3
2017-07-01T02:18:37.706Z,937.3
2017-07-01T02:19:45.795Z,937.3
2017-07-01T02:20:53.882Z,937.4
2017-07-01T02:22:01.969Z,937.4
2017-07-01T02:23:10.192Z,937.4
2017-07-01T02:24:18.143Z,937.4
2017-07-01T02:25:26.232Z,937.4
2017-07-01T02:26:34.318Z,937.4
2017-07-01T02:27:42.403Z,937.4
2017-07-01T02:28:50.640Z,937.4
2017-07-01T02:29:58.578Z,937.4
2017-07-01T02:31:06.666Z,937.4
2017-07-01T02:32:14.752Z,937.4
2017-07-01T02:33:22.840Z,937.4
2017-07-01T02:34:31.073Z,937.4
2017-07-01T02:36:47.103Z,937.4
2017-07-01T02:37:55.189Z,937.4
2017-07-01T02:39:03.394Z,937.4
2017-07-01T02:40:11.418Z,937.4
2017-07-01T02:41:19.449Z,937.4
2017-07-01T02:42:27.535Z,937.4
2017-07-01T02:43:35.624Z,937.4
2017-07-01T02:44:43.712Z,937.4
2017-07-01T02:45:51.854Z,937.4
2017-07-01T02:46:59.884Z,937.4
2017-07-01T02:48:07.970Z,937.3
2017-07-01T02:49:16.056Z,937.3
2017-07-01T02:50:24.145Z,937.4
2017-07-01T02:51:32.522Z,937.4
2017-07-01T02:52:40.318Z,937.4
2017-07-01T02:53:48.422Z,937.5
2017-07-01T02:54:56.549Z,937.5
2017-07-01T02:56:04.581Z,937.5
2017-07-01T02:57:12.724Z,937.5
2017-07-01T02:58:20.756Z,937.5
2017-07-01T02:59:28.841Z,937.5
2017-07-01T03:00:36.929Z,937.5
2017-07-01T03:01:45.018Z,937.5
2017-07-01T03:02:53.160Z,937.5
2017-07-01T03:04:01.331Z,937.5
2017-07-01T03:05:09.428Z,937.5
2017-07-01T03:06:17.369Z,937.5
2017-07-01T03:07:25.464Z,937.5
2017-07-01T03:08:33.672Z,937.6
2017-07-01T03:09:41.639Z,937.6
2017-07-01T03:10:49.854Z,937.5
2017-07-01T03:11:57.812Z,937.6
2017-07-01T03:13:05.900Z,937.6
2017-07-01T03:14:14.042Z,937.6
2017-07-01T03:15:22.072Z,937.6
2017-07-01T03:16:30.158Z,937.6
2017-07-01T03:17:38.246Z,937.6
2017-07-01T03:18:46.332Z,937.6
2017-07-01T03:19:54.541Z,937.6
2017-07-01T03:21:02.700Z,937.5
2017-07-01T03:22:10.795Z,937.6
2017-07-01T03:23:18.684Z,937.5
2017-07-01T03:24:26.769Z,937.5
2017-07-01T03:25:34.911Z,937.5
2017-07-01T03:26:42.999Z,937.5
2017-07-01T03:27:51.106Z,937.5
2017-07-01T03:28:59.117Z,937.6
2017-07-01T03:30:07.204Z,937.6
2017-07-01T03:31:15.415Z,937.6
2017-07-01T03:32:23.378Z,937.6
2017-07-01T03:33:31.634Z,937.5
2017-07-01T03:34:39.731Z,937.6
2017-07-01T03:35:47.639Z,937.6
2017-07-01T03:36:55.783Z,937.6
2017-07-01T03:38:03.814Z,937.6
2017-07-01T03:39:11.900Z,937.7
2017-07-01T03:40:19.986Z,937.7
2017-07-01T03:41:28.074Z,937.6
2017-07-01T03:42:36.284Z,937.7
2017-07-01T03:43:44.249Z,937.7
2017-07-01T03:44:52.335Z,937.7
2017-07-01T03:46:00.422Z,937.7
2017-07-01T03:47:08.509Z,937.7
2017-07-01T03:48:16.716Z,937.7
2017-07-01T03:49:24.687Z,937.8
2017-07-01T03:50:32.956Z,937.8
2017-07-01T03:51:41.053Z,937.8
2017-07-01T03:52:48.946Z,937.8
2017-07-01T03:53:57.096Z,937.8
2017-07-01T03:55:05.121Z,937.8
2017-07-01T03:56:13.208Z,937.8
2017-07-01T03:57:21.375Z,937.8
2017-07-01T03:58:31.235Z,937.8
2017-07-01T03:59:37.589Z,937.8
2017-07-01T04:00:45.556Z,937.8
2017-07-01T04:01:53.643Z,937.8
2017-07-01T04:03:01.729Z,937.8
2017-07-01T04:04:09.822Z,937.8
2017-07-01T04:05:18.039Z,937.9
2017-07-01T04:06:25.989Z,937.8
2017-07-01T04:07:34.253Z,937.9
2017-07-01T04:08:42.344Z,937.9
2017-07-01T04:09:50.251Z,937.9
2017-07-01T04:10:58.395Z,937.9
2017-07-01T04:12:06.424Z,937.9
2017-07-01T04:13:14.603Z,937.9
2017-07-01T04:14:22.836Z,937.9
2017-07-01T04:15:30.685Z,937.9
2017-07-01T04:16:38.827Z,937.9
2017-07-01T04:17:46.858Z,937.9
2017-07-01T04:18:54.945Z,938.0
2017-07-01T04:20:03.032Z,938.0
2017-07-01T04:21:11.121Z,938.0
2017-07-01T04:22:19.263Z,938.0
2017-07-01T04:23:27.296Z,938.0
2017-07-01T04:24:35.384Z,938.0
2017-07-01T04:25:43.467Z,938.0
2017-07-01T04:26:51.629Z,938.0
2017-07-01T04:27:59.764Z,938.0
2017-07-01T04:29:07.729Z,938.0
2017-07-01T04:30:15.937Z,938.0
2017-07-01T04:31:24.056Z,938.0
2017-07-01T04:32:31.992Z,938.1
2017-07-01T04:33:40.136Z,938.0
2017-07-01T04:34:48.165Z,938.0
2017-07-01T04:35:56.251Z,938.1
2017-07-01T04:37:04.494Z,938.1
2017-07-01T04:38:12.597Z,938.1
2017-07-01T04:39:20.634Z,938.1
2017-07-01T04:40:28.600Z,938.1
2017-07-01T04:41:36.694Z,938.1
2017-07-01T04:42:44.781Z,938.1
2017-07-01T04:43:53.000Z,938.2
2017-07-01T04:45:01.304Z,938.2
2017-07-01T04:46:09.096Z,938.1
2017-07-01T04:47:17.128Z,938.2
2017-07-01T04:48:25.214Z,938.2
2017-07-01T04:49:33.382Z,938.3
2017-07-01T04:50:41.502Z,938.2
2017-07-01T04:51:49.474Z,938.3
2017-07-01T04:52:57.559Z,938.3
2017-07-01T04:54:05.645Z,938.3
2017-07-01T04:55:13.732Z,938.3
2017-07-01T04:56:21.945Z,938.3
2017-07-01T04:57:29.908Z,938.3
2017-07-01T04:58:37.996Z,938.4
2017-07-01T04:59:46.082Z,938.4
2017-07-01T05:00:54.167Z,938.3
2017-07-01T05:02:02.376Z,938.3
2017-07-01T05:03:10.341Z,938.3
2017-07-01T05:04:18.439Z,938.3
2017-07-01T05:05:26.524Z,938.4
2017-07-01T05:06:34.773Z,938.3
2017-07-01T05:07:42.819Z,938.4
2017-07-01T05:08:50.787Z,938.4
2017-07-01T05:09:58.881Z,938.4
2017-07-01T05:11:06.964Z,938.4
2017-07-01T05:12:15.045Z,938.4
2017-07-01T05:13:23.189Z,938.4
2017-07-01T05:14:31.219Z,938.5
2017-07-01T05:15:39.312Z,938.5
2017-07-01T05:16:47.467Z,938.4
2017-07-01T05:17:55.600Z,938.5
2017-07-01T05:19:03.624Z,938.5
2017-07-01T05:20:11.654Z,938.5
2017-07-01T05:21:19.742Z,938.5
2017-07-01T05:22:27.827Z,938.5
2017-07-01T05:23:35.916Z,938.5
2017-07-01T05:24:44.056Z,938.5
2017-07-01T05:25:52.090Z,938.5
2017-07-01T05:27:00.176Z,938.5
2017-07-01T05:28:08.761Z,938.5
2017-07-01T05:29:16.393Z,938.5
2017-07-01T05:30:24.732Z,938.5
2017-07-01T05:31:32.522Z,938.5
2017-07-01T05:32:40.607Z,938.5
2017-07-01T05:33:48.752Z,938.5
2017-07-01T05:34:56.782Z,938.5
2017-07-01T05:36:05.100Z,938.5
2017-07-01T05:37:12.955Z,938.6
2017-07-01T05:38:21.097Z,938.6
2017-07-01T05:39:29.131Z,938.6
2017-07-01T05:40:37.217Z,938.6
2017-07-01T05:41:45.603Z,938.6
2017-07-01T05:42:53.390Z,938.6
2017-07-01T05:44:01.478Z,938.6
2017-07-01T05:45:09.562Z,938.6
2017-07-01T05:46:17.652Z,938.6
2017-07-01T05:47:25.794Z,938.7
2017-07-01T05:48:33.930Z,938.6
2017-07-01T05:49:41.970Z,938.6
2017-07-01T05:50:49.998Z,938.7
2017-07-01T05:51:58.084Z,938.7
2017-07-01T05:53:06.291Z,938.6
2017-07-01T05:54:14.269Z,938.6
2017-07-01T05:55:22.383Z,938.7
2017-07-01T05:56:30.443Z,938.7
2017-07-01T05:57:38.521Z,938.7
2017-07-01T05:58:47.109Z,938.7
2017-07-01T05:59:54.783Z,938.6
2017-07-01T06:01:02.778Z,938.7
2017-07-01T06:02:10.864Z,938.7
2017-07-01T06:03:18.951Z,938.7
2017-07-01T06:04:27.096Z,938.7
2017-07-01T06:05:35.301Z,938.7
2017-07-01T06:06:43.213Z,938.7
2017-07-01T06:07:51.298Z,938.7
2017-07-01T06:08:59.386Z,938.7
2017-07-01T06:10:07.611Z,938.8
2017-07-01T06:11:15.604Z,938.7
2017-07-01T06:12:23.715Z,938.8
2017-07-01T06:13:31.745Z,938.8
2017-07-01T06:14:39.830Z,938.9
2017-07-01T06:15:47.973Z,938.8
2017-07-01T06:16:56.007Z,938.8
2017-07-01T06:18:04.090Z,938.8
2017-07-01T06:19:12.177Z,938.8
2017-07-01T06:20:20.262Z,938.8
2017-07-01T06:21:28.469Z,938.8
2017-07-01T06:22:36.437Z,938.8
2017-07-01T06:23:44.523Z,938.9
2017-07-01T06:24:52.612Z,938.9
2017-07-01T06:26:00.700Z,938.9
2017-07-01T06:27:08.905Z,938.9
2017-07-01T06:28:17.065Z,938.9
2017-07-01T06:29:24.960Z,938.9
2017-07-01T06:30:33.045Z,938.9
2017-07-01T06:31:41.133Z,938.9
2017-07-01T06:32:49.275Z,938.9
2017-07-01T06:33:57.308Z,938.9
2017-07-01T06:42:26.466Z,939.0
2017-07-01T06:43:34.431Z,939.0
2017-07-01T06:44:42.520Z,939.0
2017-07-01T06:45:50.602Z,939.0
2017-07-01T06:46:58.720Z,938.9
2017-07-01T06:48:06.831Z,938.9
2017-07-01T06:49:14.862Z,938.9
2017-07-01T06:50:22.960Z,938.9
2017-07-01T06:51:31.046Z,938.9
2017-07-01T06:52:39.278Z,938.9
2017-07-01T06:53:47.277Z,938.9
2017-07-01T06:54:55.304Z,938.9
2017-07-01T06:56:03.393Z,938.9
2017-07-01T06:57:11.478Z,939.0
2017-07-01T06:58:19.777Z,939.0
2017-07-01T06:59:27.708Z,939.0
2017-07-01T07:00:35.739Z,939.0
2017-07-01T07:01:43.944Z,938.9
2017-07-01T07:02:51.912Z,939.0
2017-07-01T07:04:00.020Z,939.0
2017-07-01T07:05:08.225Z,939.0
2017-07-01T07:06:16.183Z,939.0
2017-07-01T07:07:24.272Z,939.0
2017-07-01T07:08:32.358Z,939.0
2017-07-01T07:09:40.444Z,939.0
2017-07-01T07:10:48.586Z,939.0
2017-07-01T07:11:56.617Z,939.0
2017-07-01T07:13:04.737Z,939.0
2017-07-01T07:14:12.913Z,939.0
2017-07-01T07:15:20.877Z,939.0
2017-07-01T07:16:29.021Z,939.0
2017-07-01T07:17:37.360Z,939.0
2017-07-01T07:18:45.141Z,938.9
2017-07-01T07:19:53.226Z,939.0
2017-07-01T07:21:01.338Z,939.0
2017-07-01T07:22:09.460Z,938.9
2017-07-01T07:23:17.486Z,938.9
2017-07-01T07:24:25.574Z,938.9
2017-07-01T07:25:33.658Z,939.0
2017-07-01T07:26:41.745Z,939.0
2017-07-01T07:27:49.955Z,939.0
2017-07-01T07:28:57.920Z,939.0
2017-07-01T07:30:06.062Z,939.0
2017-07-01T07:31:14.091Z,938.9
2017-07-01T07:32:22.268Z,939.0
2017-07-01T07:33:30.386Z,938.9
2017-07-01T07:34:38.354Z,938.9
2017-07-01T07:35:46.440Z,938.9
2017-07-01T07:36:54.527Z,938.9
2017-07-01T07:38:02.641Z,939.0
2017-07-01T07:39:10.876Z,939.0
2017-07-01T07:40:18.787Z,938.9
2017-07-01T07:41:26.873Z,939.1
2017-07-01T07:42:34.958Z,939.0
2017-07-01T07:43:43.046Z,939.0
2017-07-01T07:44:51.244Z,939.0
2017-07-01T07:45:59.339Z,939.0
2017-07-01T07:47:07.305Z,938.9
2017-07-01T07:48:15.392Z,938.9
2017-07-01T07:49:23.480Z,938.9
2017-07-01T07:50:31.621Z,938.9
2017-07-01T07:51:39.652Z,938.9
2017-07-01T07:52:47.739Z,938.9
2017-07-01T07:53:55.827Z,938.9
2017-07-01T07:55:04.024Z,938.9
2017-07-01T07:56:12.056Z,938.9
2017-07-01T07:57:20.087Z,939.0
2017-07-01T07:58:28.174Z,939.0
2017-07-01T07:59:36.260Z,939.0
2017-07-01T08:00:44.345Z,938.9
2017-07-01T08:01:52.661Z,939.0
2017-07-01T08:03:00.525Z,939.0
2017-07-01T08:04:08.625Z,939.0
2017-07-01T08:05:16.709Z,939.0
2017-07-01T08:06:24.796Z,939.0
2017-07-01T08:07:33.033Z,939.0
2017-07-01T08:08:40.998Z,939.1
2017-07-01T08:09:49.058Z,939.1
2017-07-01T08:10:57.140Z,939.1
2017-07-01T08:12:05.273Z,939.0
2017-07-01T08:13:13.372Z,939.1
2017-07-01T08:14:21.402Z,939.1
2017-07-01T08:15:29.490Z,939.1
2017-07-01T08:16:37.575Z,939.1
2017-07-01T08:17:45.781Z,939.2
2017-07-01T08:18:53.969Z,939.1
2017-07-01T08:20:01.841Z,939.1
2017-07-01T08:21:09.925Z,939.1
2017-07-01T08:22:18.013Z,939.1
2017-07-01T08:23:26.102Z,939.2
2017-07-01T08:24:34.244Z,939.2
2017-07-01T08:25:42.284Z,939.2
2017-07-01T08:26:50.359Z,939.3
2017-07-01T08:27:58.448Z,939.3
2017-07-01T08:29:06.536Z,939.3
2017-07-01T08:30:14.743Z,939.2
2017-07-01T08:31:22.723Z,939.3
2017-07-01T08:32:30.794Z,939.3
2017-07-01T08:33:38.940Z,939.2
2017-07-01T08:34:46.967Z,939.3
2017-07-01T08:35:55.109Z,939.3
2017-07-01T08:37:03.139Z,939.3
2017-07-01T08:38:11.226Z,939.3
2017-07-01T08:39:19.319Z,939.3
2017-07-01T08:40:27.400Z,939.2
2017-07-01T08:41:35.766Z,939.3
2017-07-01T08:42:43.739Z,939.2
2017-07-01T08:43:51.664Z,939.3
2017-07-01T08:44:59.750Z,939.3
2017-07-01T08:46:07.834Z,939.3
2017-07-01T08:47:15.977Z,939.4
2017-07-01T08:48:24.065Z,939.3
2017-07-01T08:49:32.153Z,939.3
2017-07-01T08:50:40.182Z,939.3
2017-07-01T08:51:48.272Z,939.4
2017-07-01T08:52:56.478Z,939.3
2017-07-01T08:54:04.445Z,939.4
2017-07-01T08:55:12.530Z,939.3
2017-07-01T08:56:20.616Z,939.3
2017-07-01T08:57:28.702Z,939.4
2017-07-01T08:58:36.910Z,939.3
2017-07-01T08:59:44.876Z,939.3
2017-07-01T09:00:52.964Z,939.3
2017-07-01T09:02:01.052Z,939.4
2017-07-01T09:03:09.137Z,939.3
2017-07-01T09:04:17.279Z,939.2
2017-07-01T09:05:25.472Z,939.3
2017-07-01T09:06:33.394Z,939.3
2017-07-01T09:07:41.482Z,939.3
2017-07-01T09:08:49.568Z,939.3
2017-07-01T09:09:57.710Z,939.2
2017-07-01T09:11:05.784Z,939.3
2017-07-01T09:12:13.895Z,939.2
2017-07-01T09:13:21.917Z,939.3
2017-07-01T09:14:30.005Z,939.2
2017-07-01T09:15:38.143Z,939.2
2017-07-01T09:16:46.175Z,939.3
2017-07-01T09:17:54.260Z,939.3
2017-07-01T09:19:02.347Z,939.3
2017-07-01T09:20:10.433Z,939.2
2017-07-01T09:21:18.640Z,939.3
2017-07-01T09:22:26.606Z,939.2
2017-07-01T09:23:34.694Z,939.4
2017-07-01T09:24:42.779Z,939.3
2017-07-01T09:25:50.865Z,939.4
2017-07-01T09:26:59.037Z,939.3
2017-07-01T09:28:07.212Z,939.3
2017-07-01T09:29:15.323Z,939.3
2017-07-01T09:30:23.216Z,939.3
2017-07-01T09:31:31.301Z,939.3
2017-07-01T09:32:39.511Z,939.3
2017-07-01T09:33:47.477Z,939.4
2017-07-01T09:34:55.742Z,939.3
2017-07-01T09:36:03.648Z,939.4
2017-07-01T09:37:11.792Z,939.3
2017-07-01T09:38:19.880Z,939.4
2017-07-01T09:39:27.908Z,939.2
2017-07-01T09:40:36.142Z,939.3
2017-07-01T09:41:44.254Z,939.3
2017-07-01T09:42:52.170Z,939.4
2017-07-01T09:44:00.377Z,939.3
2017-07-01T09:45:08.341Z,939.3
2017-07-01T09:46:16.432Z,939.4
2017-07-01T09:47:24.609Z,939.2
2017-07-01T09:48:32.605Z,939.2
2017-07-01T09:49:40.749Z,939.3
2017-07-01T09:50:49.540Z,939.3
2017-07-01T09:51:56.867Z,939.3
2017-07-01T09:53:05.042Z,939.4
2017-07-01T09:54:13.040Z,939.3
2017-07-01T09:55:21.184Z,939.3
2017-07-01T09:56:29.217Z,939.3
2017-07-01T09:57:37.303Z,939.3
2017-07-01T09:58:45.391Z,939.3
2017-07-01T09:59:53.485Z,939.3
2017-07-01T10:01:01.627Z,939.2
2017-07-01T10:02:09.657Z,939.3
2017-07-01T10:03:17.754Z,939.3
2017-07-01T10:04:26.031Z,939.3
2017-07-01T10:05:33.929Z,939.3
2017-07-01T10:06:42.081Z,939.3
2017-07-01T10:07:50.112Z,939.3
2017-07-01T10:08:58.256Z,939.3
2017-07-01T10:10:06.290Z,939.3
2017-07-01T10:11:14.377Z,939.4
2017-07-01T10:12:22.585Z,939.3
2017-07-01T10:13:30.554Z,939.4
2017-07-01T10:14:38.644Z,939.4
2017-07-01T10:15:46.732Z,939.4
2017-07-01T10:16:54.908Z,939.4
2017-07-01T10:18:02.960Z,939.4
2017-07-01T10:19:10.994Z,939.3
2017-07-01T10:20:19.081Z,939.2
2017-07-01T10:21:27.173Z,939.3
2017-07-01T10:22:35.262Z,939.3
2017-07-01T10:23:43.405Z,939.3
2017-07-01T10:24:51.554Z,939.3
2017-07-01T10:25:59.522Z,939.3
2017-07-01T10:27:07.609Z,939.2
2017-07-01T10:28:15.698Z,939.2
2017-07-01T10:29:23.840Z,939.2
2017-07-01T10:30:31.873Z,939.2
2017-07-01T10:31:39.959Z,939.3
2017-07-01T10:32:48.053Z,939.3
2017-07-01T10:33:56.326Z,939.2
2017-07-01T10:35:04.280Z,939.2
2017-07-01T10:36:12.313Z,939.3
2017-07-01T10:37:20.402Z,939.3
2017-07-01T10:38:28.487Z,939.3
2017-07-01T10:39:36.675Z,939.2
2017-07-01T10:40:44.783Z,939.2
2017-07-01T10:41:52.750Z,939.3
2017-07-01T10:43:00.835Z,939.3
2017-07-01T10:44:08.922Z,939.3
2017-07-01T10:45:17.055Z,939.3
2017-07-01T10:46:25.226Z,939.3
2017-07-01T10:47:33.184Z,939.3
2017-07-01T10:48:41.272Z,939.3
2017-07-01T10:49:49.362Z,939.3
2017-07-01T10:50:57.449Z,939.3
2017-07-01T10:52:05.683Z,939.3
2017-07-01T10:53:13.620Z,939.3
2017-07-01T10:54:21.713Z,939.2
2017-07-01T10:55:29.794Z,939.3
2017-07-01T10:56:37.938Z,939.3
2017-07-01T10:57:46.091Z,939.3
2017-07-01T10:58:54.059Z,939.3
2017-07-01T11:00:02.145Z,939.3
2017-07-01T11:01:10.233Z,939.3
2017-07-01T11:02:18.321Z,939.3
2017-07-01T11:03:26.528Z,939.4
2017-07-01T11:04:34.494Z,939.3
2017-07-01T11:05:42.582Z,939.3
2017-07-01T11:06:50.668Z,939.4
2017-07-01T11:07:58.755Z,939.4
2017-07-01T11:09:06.901Z,939.4
2017-07-01T11:10:14.931Z,939.4
2017-07-01T11:11:23.020Z,939.4
2017-07-01T11:12:31.163Z,939.4
2017-07-01T11:13:39.202Z,939.4
2017-07-01T11:14:47.358Z,939.4
2017-07-01T11:15:55.495Z,939.4
2017-07-01T11:17:03.461Z,939.4
2017-07-01T11:18:11.550Z,939.4
2017-07-01T11:19:19.638Z,939.4
2017-07-01T11:20:27.781Z,939.4
2017-07-01T11:21:35.841Z,939.4
2017-07-01T11:22:43.899Z,939.4
2017-07-01T11:23:51.985Z,939.4
2017-07-01T11:25:00.074Z,939.4
2017-07-01T11:26:08.279Z,939.4
2017-07-01T11:27:16.248Z,939.4
2017-07-01T11:28:24.392Z,939.4
2017-07-01T11:29:32.422Z,939.4
2017-07-01T11:30:40.507Z,939.4
2017-07-01T11:31:48.811Z,939.4
2017-07-01T11:32:56.847Z,939.4
2017-07-01T11:34:04.777Z,939.4
2017-07-01T11:35:12.865Z,939.4
2017-07-01T11:36:20.954Z,939.4
2017-07-01T11:37:29.160Z,939.4
2017-07-01T11:38:37.199Z,939.4
2017-07-01T11:39:45.214Z,939.4
2017-07-01T11:40:53.296Z,939.4
2017-07-01T11:42:01.389Z,939.4
2017-07-01T11:43:09.531Z,939.4
2017-07-01T11:44:17.681Z,939.5
2017-07-01T11:45:25.647Z,939.4
2017-07-01T11:46:33.733Z,939.5
2017-07-01T11:47:41.820Z,939.5
2017-07-01T11:48:49.962Z,939.5
2017-07-01T11:49:57.993Z,939.5
2017-07-01T11:51:06.079Z,939.5
2017-07-01T11:52:14.165Z,939.5
2017-07-01T11:53:22.254Z,939.4
2017-07-01T11:54:30.399Z,939.5
2017-07-01T11:55:38.572Z,939.4
2017-07-01T11:56:46.519Z,939.4
2017-07-01T11:57:54.604Z,939.4
2017-07-01T11:59:02.690Z,939.5
2017-07-01T12:00:10.906Z,939.4
2017-07-01T12:01:18.934Z,939.4
2017-07-01T12:02:27.042Z,939.3
2017-07-01T12:03:35.036Z,939.4
2017-07-01T12:04:43.127Z,939.4
2017-07-01T12:05:51.267Z,939.2
2017-07-01T12:06:59.298Z,939.2
2017-07-01T12:08:07.385Z,939.4
2017-07-01T12:09:15.469Z,939.3
2017-07-01T12:10:23.557Z,939.4
2017-07-01T12:11:31.776Z,939.3
2017-07-01T12:12:39.731Z,939.4
2017-07-01T12:13:47.819Z,939.4
2017-07-01T12:14:55.906Z,939.3
2017-07-01T12:16:04.048Z,939.3
2017-07-01T12:17:12.200Z,939.3
2017-07-01T12:18:20.213Z,939.3
2017-07-01T12:19:28.338Z,939.3
2017-07-01T12:20:36.340Z,939.2
2017-07-01T12:21:44.427Z,939.2
2017-07-01T12:22:52.578Z,939.3
2017-07-01T12:24:00.604Z,939.3
2017-07-01T12:25:08.785Z,939.3
2017-07-01T12:26:16.774Z,939.3
2017-07-01T12:27:24.861Z,939.3
2017-07-01T12:28:33.003Z,939.3
2017-07-01T12:29:41.035Z,939.4
2017-07-01T12:30:49.185Z,939.4
2017-07-01T12:31:57.264Z,939.4
2017-07-01T12:33:05.296Z,939.4
2017-07-01T12:34:13.441Z,939.4
2017-07-01T12:35:21.473Z,939.4
2017-07-01T12:36:29.556Z,939.4
2017-07-01T12:37:37.694Z,939.4
2017-07-01T12:38:45.730Z,939.4
2017-07-01T12:39:53.938Z,939.4
2017-07-01T12:41:01.904Z,939.4
2017-07-01T12:42:09.990Z,939.4
2017-07-01T12:43:18.090Z,939.4
2017-07-01T12:44:26.165Z,939.4
2017-07-01T12:45:34.307Z,939.4
2017-07-01T12:46:42.341Z,939.4
2017-07-01T12:47:50.552Z,939.4
2017-07-01T12:48:58.554Z,939.4
2017-07-01T12:50:06.600Z,939.4
2017-07-01T12:51:14.744Z,939.3
2017-07-01T12:52:22.774Z,939.5
2017-07-01T12:53:30.861Z,939.4
2017-07-01T12:54:38.950Z,939.5
2017-07-01T12:55:47.037Z,939.4
2017-07-01T12:56:55.241Z,939.4
2017-07-01T12:58:03.207Z,939.4
2017-07-01T12:59:11.294Z,939.5
2017-07-01T13:00:19.381Z,939.4
2017-07-01T13:01:27.467Z,939.5
2017-07-01T13:02:35.611Z,939.5
2017-07-01T13:03:43.698Z,939.5
2017-07-01T13:04:51.731Z,939.4
2017-07-01T13:05:59.937Z,939.5
2017-07-01T13:07:07.902Z,939.4
2017-07-01T13:08:16.109Z,939.4
2017-07-01T13:09:24.076Z,939.4
2017-07-01T13:10:32.164Z,939.4
2017-07-01T13:11:40.249Z,939.4
2017-07-01T13:12:48.520Z,939.6
2017-07-01T13:13:56.480Z,939.5
2017-07-01T13:15:04.513Z,939.5
2017-07-01T13:16:12.597Z,939.5
2017-07-01T13:17:20.684Z,939.5
2017-07-01T13:18:28.889Z,939.5
2017-07-01T13:19:37.115Z,939.5
2017-07-01T13:20:44.968Z,939.5
2017-07-01T13:21:53.053Z,939.6
2017-07-01T13:23:01.142Z,939.6
2017-07-01T13:24:09.225Z,939.6
2017-07-01T13:25:17.438Z,939.6
2017-07-01T13:26:25.402Z,939.6
2017-07-01T13:27:33.487Z,939.6
2017-07-01T13:28:41.576Z,939.6
2017-07-01T13:29:49.662Z,939.6
2017-07-01T13:30:57.804Z,939.6
2017-07-01T13:32:05.841Z,939.6
2017-07-01T13:33:13.921Z,939.5
2017-07-01T13:34:22.009Z,939.6
2017-07-01T13:35:30.216Z,939.6
2017-07-01T13:36:38.240Z,939.6
2017-07-01T13:37:46.270Z,939.6
2017-07-01T13:38:54.357Z,939.6
2017-07-01T13:40:02.445Z,939.6
2017-07-01T13:41:10.530Z,939.6
2017-07-01T13:42:18.869Z,939.6
2017-07-01T13:43:26.704Z,939.6
2017-07-01T13:44:34.789Z,939.7
2017-07-01T13:45:42.878Z,939.7
2017-07-01T13:46:50.965Z,939.6
2017-07-01T13:47:59.224Z,939.7
2017-07-01T13:49:07.273Z,939.6
2017-07-01T13:50:15.225Z,939.7
2017-07-01T13:51:23.433Z,939.6
2017-07-01T13:52:31.400Z,939.7
2017-07-01T13:53:39.544Z,939.6
2017-07-01T13:54:47.617Z,939.7
2017-07-01T13:55:55.660Z,939.7
2017-07-01T13:57:03.746Z,939.7
2017-07-01T13:58:11.834Z,939.6
2017-07-01T13:59:20.042Z,939.6
2017-07-01T14:00:28.013Z,939.6
2017-07-01T14:01:36.095Z,939.6
2017-07-01T14:02:44.182Z,939.7
2017-07-01T14:03:52.276Z,939.7
2017-07-01T14:05:00.417Z,939.7
2017-07-01T14:06:08.443Z,939.7
2017-07-01T14:07:16.586Z,939.8
2017-07-01T14:08:24.617Z,939.8
2017-07-01T14:09:32.705Z,939.8
2017-07-01T14:10:40.910Z,939.8
2017-07-01T14:11:49.021Z,939.8
2017-07-01T14:12:56.964Z,939.8
2017-07-01T14:14:05.051Z,939.9
2017-07-01T14:15:13.138Z,939.8
2017-07-01T14:16:21.286Z,939.8
2017-07-01T14:17:29.314Z,939.8
2017-07-01T14:18:37.401Z,939.9
2017-07-01T14:19:45.489Z,939.9
2017-07-01T14:20:53.574Z,939.9
2017-07-01T14:22:01.719Z,939.8
2017-07-01T14:23:09.867Z,939.9
2017-07-01T14:24:17.834Z,939.9
2017-07-01T14:25:25.924Z,939.9
2017-07-01T14:26:34.007Z,939.9
2017-07-01T14:27:42.152Z,939.9
2017-07-01T14:28:50.190Z,939.9
2017-07-01T14:29:58.323Z,939.9
2017-07-01T14:31:06.364Z,939.9
2017-07-01T14:32:14.451Z,939.9
2017-07-01T14:33:22.598Z,939.9
2017-07-01T14:34:30.752Z,939.9
2017-07-01T14:35:38.854Z,940.0
2017-07-01T14:36:46.801Z,940.0
2017-07-01T14:37:54.888Z,940.0
2017-07-01T14:39:03.094Z,940.0
2017-07-01T14:40:11.062Z,940.0
2017-07-01T14:41:19.202Z,940.0
2017-07-01T14:42:27.235Z,940.0
2017-07-01T14:43:35.322Z,940.1
2017-07-01T14:44:43.530Z,940.1